Time;durP1;ratioP1;P1;durP2;ratioP2;P2;SDS_P1;SDS_P2;PMS_P1;PMS_P2;Temp;Humidity;BMP_temperature;BMP_pressure;BME280_temperature;BME280_humidity;BME280_pressure;Samples;Min_cycle;Max_cycle;Signal;HPM_P1;HPM_P2
2022/04/01 00:00:46;;;;;;;3.13;0.90;;;1.30;56.60;;;;;;4063622;29;20047;-76
2022/04/01 00:02:47;;;;;;;5.53;1.05;;;1.30;56.60;;;;;;4093727;28;20515;-76
2022/04/01 00:04:48;;;;;;;2.15;0.98;;;1.20;56.60;;;;;;4092441;28;20485;-77
2022/04/01 00:06:49;;;;;;;2.60;0.93;;;1.30;56.50;;;;;;4078684;29;20031;-76
2022/04/01 00:08:49;;;;;;;3.35;1.20;;;1.30;56.60;;;;;;4092636;28;20105;-76
2022/04/01 00:10:50;;;;;;;5.28;1.10;;;1.20;56.50;;;;;;4092114;28;20027;-76
2022/04/01 00:12:51;;;;;;;2.92;1.00;;;1.20;56.50;;;;;;4074787;29;20046;-76
2022/04/01 00:14:51;;;;;;;2.88;1.35;;;1.20;56.50;;;;;;4092029;28;20551;-76
2022/04/01 00:16:52;;;;;;;3.42;1.30;;;1.20;56.40;;;;;;4072183;29;20466;-76
2022/04/01 00:18:53;;;;;;;1.83;1.08;;;1.30;56.50;;;;;;4094456;28;20373;-76
2022/04/01 00:20:53;;;;;;;4.32;1.00;;;1.20;56.40;;;;;;4076324;29;20478;-77
2022/04/01 00:22:54;;;;;;;4.05;1.08;;;1.20;56.40;;;;;;4090827;28;20474;-76
2022/04/01 00:24:54;;;;;;;2.55;1.05;;;1.20;56.40;;;;;;4073735;29;20107;-76
2022/04/01 00:26:55;;;;;;;3.35;0.82;;;1.20;56.40;;;;;;4074201;29;20489;-76
2022/04/01 00:28:56;;;;;;;5.75;1.02;;;1.30;56.50;;;;;;4095104;28;20528;-77
2022/04/01 00:30:56;;;;;;;2.45;0.93;;;1.20;56.40;;;;;;4060837;29;20055;-76
2022/04/01 00:32:57;;;;;;;2.72;0.95;;;1.20;56.40;;;;;;4093134;28;20555;-76
2022/04/01 00:34:57;;;;;;;3.58;1.25;;;1.20;56.50;;;;;;4045663;29;20077;-77
2022/04/01 00:36:59;;;;;;;4.95;1.10;;;1.20;56.40;;;;;;4071665;29;20091;-77
2022/04/01 00:39:00;;;;;;;2.60;1.20;;;1.20;56.40;;;;;;4076650;29;20028;-77
2022/04/01 00:41:01;;;;;;;5.47;1.13;;;1.20;56.40;;;;;;4057814;29;20367;-77
2022/04/01 00:43:02;;;;;;;2.00;0.95;;;1.20;56.50;;;;;;4088450;28;20043;-76
2022/04/01 00:45:03;;;;;;;2.30;0.85;;;1.30;56.50;;;;;;4093621;28;20326;-77
2022/04/01 00:47:08;;;;;;;2.55;0.75;;;1.20;56.60;;;;;;4089506;28;20459;-77
2022/04/01 00:49:09;;;;;;;3.08;1.10;;;1.20;56.70;;;;;;4075729;29;20115;-76
2022/04/01 00:51:09;;;;;;;3.30;1.27;;;1.30;56.60;;;;;;4062220;29;20092;-77
2022/04/01 00:53:10;;;;;;;4.40;1.08;;;1.20;56.60;;;;;;4074933;29;20139;-77
2022/04/01 00:55:11;;;;;;;1.95;0.88;;;1.30;56.70;;;;;;4081480;28;20027;-76
2022/04/01 00:57:13;;;;;;;2.80;1.08;;;1.20;56.60;;;;;;4072244;29;20047;-76
2022/04/01 00:59:14;;;;;;;3.33;1.00;;;1.20;56.70;;;;;;4074421;29;20481;-77
2022/04/01 01:01:14;;;;;;;2.03;0.75;;;1.20;56.70;;;;;;4087239;28;20119;-76
2022/04/01 01:03:15;;;;;;;3.35;1.05;;;1.20;56.70;;;;;;4075378;29;20043;-76
2022/04/01 01:05:16;;;;;;;2.05;1.00;;;1.20;56.80;;;;;;4075037;29;20501;-75
2022/04/01 01:07:17;;;;;;;2.70;0.90;;;1.20;56.80;;;;;;4075883;29;20027;-76
2022/04/01 01:09:18;;;;;;;5.28;1.10;;;1.20;56.80;;;;;;4065292;29;20040;-75
2022/04/01 01:11:19;;;;;;;2.58;1.05;;;1.20;56.80;;;;;;4064860;29;20082;-75
2022/04/01 01:13:19;;;;;;;5.63;0.95;;;1.20;56.80;;;;;;4061828;29;20040;-75
2022/04/01 01:15:20;;;;;;;8.20;1.33;;;1.20;56.80;;;;;;4099387;28;20399;-75
2022/04/01 01:17:21;;;;;;;1.55;0.70;;;1.20;56.90;;;;;;4077085;29;20038;-75
2022/04/01 01:19:21;;;;;;;4.50;0.88;;;1.20;56.90;;;;;;4089839;28;20046;-75
2022/04/01 01:21:23;;;;;;;5.07;0.95;;;1.30;57.00;;;;;;4078143;29;20050;-75
2022/04/01 01:23:31;;;;;;;2.72;1.02;;;1.20;57.00;;;;;;4078681;29;20039;-75
2022/04/01 01:25:31;;;;;;;4.25;1.17;;;1.20;57.00;;;;;;4073952;28;20035;-75
2022/04/01 01:27:32;;;;;;;2.13;1.00;;;1.30;57.00;;;;;;4076177;29;20028;-76
2022/04/01 01:29:35;;;;;;;3.75;1.20;;;1.30;57.10;;;;;;4080363;29;20497;-76
2022/04/01 01:31:36;;;;;;;2.83;0.82;;;1.30;57.10;;;;;;4092027;28;20042;-76
2022/04/01 01:33:36;;;;;;;3.70;0.80;;;1.30;57.00;;;;;;4077162;29;20437;-76
2022/04/01 01:35:37;;;;;;;3.30;1.10;;;1.30;57.00;;;;;;4090009;28;20020;-76
2022/04/01 01:37:38;;;;;;;2.80;1.08;;;1.30;57.10;;;;;;4057102;29;20028;-76
2022/04/01 01:39:39;;;;;;;3.88;1.27;;;1.30;57.10;;;;;;4092652;28;20392;-76
2022/04/01 01:41:42;;;;;;;3.55;1.08;;;1.30;57.10;;;;;;4063320;29;20042;-76
2022/04/01 01:43:43;;;;;;;1.92;0.95;;;1.30;57.10;;;;;;4080188;29;20050;-76
2022/04/01 01:45:43;;;;;;;3.78;0.95;;;1.30;57.10;;;;;;4096699;28;20027;-76
2022/04/01 01:47:44;;;;;;;2.50;1.05;;;1.30;57.10;;;;;;4079004;29;20055;-76
2022/04/01 01:56:59;;;;;;;2.30;0.88;;;1.30;57.40;;;;;;4037615;29;20043;-76
2022/04/01 01:59:00;;;;;;;2.45;0.73;;;1.30;57.50;;;;;;4026042;29;20082;-76
2022/04/01 02:01:00;;;;;;;2.50;1.10;;;1.30;57.50;;;;;;4048023;29;20024;-76
2022/04/01 02:03:04;;;;;;;2.83;1.13;;;1.30;57.60;;;;;;4028879;29;20059;-76
2022/04/01 02:05:06;;;;;;;3.97;1.00;;;1.30;57.60;;;;;;4032890;29;20049;-76
2022/04/01 02:07:07;;;;;;;3.60;1.20;;;1.30;57.50;;;;;;4048300;29;20239;-76
2022/04/01 02:09:08;;;;;;;2.15;1.05;;;1.30;57.50;;;;;;4032807;29;20029;-76
2022/04/01 02:11:09;;;;;;;1.92;0.88;;;1.30;57.60;;;;;;4038356;29;20033;-76
2022/04/01 02:13:10;;;;;;;2.08;0.90;;;1.30;57.60;;;;;;4044768;29;20052;-76
2022/04/01 02:15:10;;;;;;;2.08;1.00;;;1.30;57.60;;;;;;4017735;29;20030;-77
2022/04/01 02:17:11;;;;;;;3.35;1.40;;;1.30;57.50;;;;;;4047919;29;20761;-76
2022/04/01 02:19:12;;;;;;;3.42;1.10;;;1.30;57.50;;;;;;4046743;29;20068;-77
2022/04/01 02:21:15;;;;;;;1.33;1.00;;;1.30;57.40;;;;;;4031917;29;20083;-77
2022/04/01 02:23:16;;;;;;;13.82;1.15;;;1.30;57.40;;;;;;4046651;29;20526;-77
2022/04/01 02:25:17;;;;;;;2.25;1.10;;;1.30;57.50;;;;;;4043831;29;20032;-77
2022/04/01 02:27:17;;;;;;;3.70;1.20;;;1.30;57.50;;;;;;4025199;29;20552;-77
2022/04/01 02:29:19;;;;;;;1.92;0.90;;;1.30;57.50;;;;;;4046693;29;20036;-77
2022/04/01 02:31:20;;;;;;;5.40;0.98;;;1.30;57.50;;;;;;4071481;28;20039;-76
2022/04/01 02:33:20;;;;;;;4.18;0.70;;;1.30;57.50;;;;;;4090486;28;20039;-77
2022/04/01 02:35:21;;;;;;;2.22;0.82;;;1.30;57.50;;;;;;4076844;29;20042;-77
2022/04/01 02:37:25;;;;;;;6.82;1.00;;;1.30;57.50;;;;;;4089812;28;20031;-77
2022/04/01 02:39:26;;;;;;;3.10;0.80;;;1.30;57.50;;;;;;4076332;29;20020;-77
2022/04/01 02:41:26;;;;;;;4.00;1.20;;;1.30;57.50;;;;;;4074583;29;20055;-76
2022/04/01 02:43:27;;;;;;;2.53;1.00;;;1.30;57.60;;;;;;4076780;29;20035;-76
2022/04/01 02:45:28;;;;;;;2.05;0.98;;;1.30;57.60;;;;;;4090504;28;20066;-77
2022/04/01 02:47:28;;;;;;;1.80;0.93;;;1.30;57.60;;;;;;4074071;29;20028;-76
2022/04/01 02:49:29;;;;;;;2.65;1.10;;;1.30;57.60;;;;;;4073465;29;20035;-76
2022/04/01 02:51:29;;;;;;;4.57;0.98;;;1.30;57.60;;;;;;4092767;28;20038;-76
2022/04/01 02:53:30;;;;;;;1.95;0.80;;;1.30;57.60;;;;;;4089863;28;20019;-76
2022/04/01 02:55:31;;;;;;;2.67;0.93;;;1.30;57.60;;;;;;4092385;28;20034;-76
2022/04/01 02:57:33;;;;;;;3.63;0.80;;;1.30;57.70;;;;;;4091763;28;20074;-76
2022/04/01 02:59:34;;;;;;;4.60;1.10;;;1.30;57.70;;;;;;4076105;29;20023;-76
2022/04/01 03:01:38;;;;;;;2.53;1.05;;;1.30;57.70;;;;;;4095034;28;20115;-76
2022/04/01 03:03:39;;;;;;;5.10;1.33;;;1.30;57.70;;;;;;4089466;28;20302;-76
2022/04/01 03:05:40;;;;;;;4.50;1.08;;;1.30;57.80;;;;;;4076123;29;20146;-76
2022/04/01 03:07:41;;;;;;;2.75;0.88;;;1.30;57.80;;;;;;4062441;29;20032;-76
2022/04/01 03:09:42;;;;;;;2.80;1.00;;;1.30;57.80;;;;;;4074482;29;20039;-76
2022/04/01 03:11:42;;;;;;;6.10;1.13;;;1.30;57.80;;;;;;4091602;28;20039;-77
2022/04/01 03:13:43;;;;;;;1.90;0.95;;;1.30;57.80;;;;;;4088011;28;20050;-76
2022/04/01 03:15:47;;;;;;;5.35;0.98;;;1.30;57.90;;;;;;4087451;28;20071;-76
2022/04/01 03:17:48;;;;;;;2.22;1.10;;;1.30;57.90;;;;;;4092851;29;20030;-76
2022/04/01 03:19:48;;;;;;;2.38;1.10;;;1.30;57.90;;;;;;4081436;29;20034;-76
2022/04/01 03:21:49;;;;;;;5.53;1.30;;;1.30;57.80;;;;;;4075288;29;20035;-76
2022/04/01 03:23:51;;;;;;;2.78;1.17;;;1.30;57.80;;;;;;4090642;28;20025;-76
2022/04/01 03:25:52;;;;;;;4.43;1.00;;;1.30;57.80;;;;;;4093466;28;20035;-76
2022/04/01 03:27:53;;;;;;;6.40;0.82;;;1.30;57.80;;;;;;4075327;29;20019;-75
2022/04/01 03:29:54;;;;;;;1.52;0.90;;;1.30;57.80;;;;;;4073882;29;20024;-76
2022/04/01 03:31:55;;;;;;;4.20;1.00;;;1.30;57.80;;;;;;4092691;28;20059;-76
2022/04/01 03:33:56;;;;;;;4.88;1.20;;;1.30;57.70;;;;;;4088903;28;20023;-75
2022/04/01 03:35:57;;;;;;;2.63;0.95;;;1.30;57.80;;;;;;4078285;29;20028;-76
2022/04/01 03:37:57;;;;;;;5.05;1.50;;;1.30;57.80;;;;;;4097242;28;20122;-75
2022/04/01 03:39:58;;;;;;;2.90;1.38;;;1.30;57.90;;;;;;4055608;29;20029;-76
2022/04/01 03:42:00;;;;;;;3.33;1.20;;;1.30;58.10;;;;;;4074283;29;20031;-76
2022/04/01 03:44:01;;;;;;;5.07;0.80;;;1.30;58.10;;;;;;4064054;29;20059;-76
2022/04/01 03:46:15;;;;;;;4.10;1.20;;;1.30;58.20;;;;;;4081065;29;20066;-76
2022/04/01 03:48:31;;;;;;;3.20;0.90;;;1.30;58.20;;;;;;4078577;29;20092;-75
2022/04/01 03:50:34;;;;;;;3.38;1.20;;;1.30;58.10;;;;;;4071734;29;20036;-75
2022/04/01 03:52:34;;;;;;;2.72;1.00;;;1.30;58.10;;;;;;4076079;29;20063;-75
2022/04/01 03:54:35;;;;;;;2.03;1.00;;;1.30;58.20;;;;;;4061613;29;20021;-76
2022/04/01 03:56:36;;;;;;;14.65;1.33;;;1.30;58.20;;;;;;4059965;29;20020;-76
2022/04/01 03:58:37;;;;;;;2.17;1.02;;;1.30;58.20;;;;;;4078906;29;20027;-76
2022/04/01 04:00:38;;;;;;;4.45;1.00;;;1.30;58.30;;;;;;4056427;29;20030;-76
2022/04/01 04:02:42;;;;;;;3.45;1.17;;;1.20;58.30;;;;;;4074542;29;20096;-76
2022/04/01 04:04:43;;;;;;;4.30;1.13;;;1.30;58.40;;;;;;4066896;29;20044;-76
2022/04/01 04:06:44;;;;;;;1.83;0.93;;;1.20;58.30;;;;;;4073070;29;20110;-76
2022/04/01 04:08:46;;;;;;;2.13;0.90;;;1.20;58.40;;;;;;4068792;29;20108;-76
2022/04/01 04:10:48;;;;;;;2.60;0.88;;;1.20;58.40;;;;;;4085412;28;20035;-76
2022/04/01 04:12:48;;;;;;;1.63;0.70;;;1.20;58.40;;;;;;4057898;29;20036;-76
2022/04/01 04:14:52;;;;;;;2.00;0.88;;;1.20;59.10;;;;;;4076994;29;20032;-76
2022/04/01 04:16:53;;;;;;;2.42;1.10;;;1.20;58.60;;;;;;4073612;29;20183;-76
2022/04/01 04:18:56;;;;;;;4.43;0.75;;;1.20;58.60;;;;;;4075351;29;20109;-76
2022/04/01 04:21:29;;;;;;;3.88;1.00;;;1.20;58.60;;;;;;4072690;29;20032;-76
2022/04/01 04:23:35;;;;;;;4.80;1.02;;;1.20;58.80;;;;;;4069033;29;20058;-76
2022/04/01 04:25:37;;;;;;;1.75;0.70;;;1.20;58.70;;;;;;4070627;29;20469;-76
2022/04/01 04:27:38;;;;;;;5.25;1.10;;;1.10;58.70;;;;;;4091747;28;20060;-76
2022/04/01 04:29:51;;;;;;;2.80;0.70;;;1.20;58.70;;;;;;4061698;29;20024;-76
2022/04/01 04:31:56;;;;;;;3.28;0.90;;;1.20;58.80;;;;;;4071381;29;20044;-77
2022/04/01 04:33:57;;;;;;;1.70;0.70;;;1.20;58.80;;;;;;4071371;29;20062;-76
2022/04/01 04:36:04;;;;;;;2.58;0.98;;;1.10;58.80;;;;;;4072259;29;20072;-77
2022/04/01 04:38:05;;;;;;;1.30;0.80;;;1.10;58.80;;;;;;4072773;29;20024;-76
2022/04/01 04:40:07;;;;;;;2.10;0.93;;;1.10;58.90;;;;;;4055615;29;20123;-76
2022/04/01 04:42:09;;;;;;;1.52;0.85;;;1.10;59.00;;;;;;4058464;29;20059;-76
2022/04/01 04:44:10;;;;;;;3.55;1.10;;;1.20;59.10;;;;;;4069555;29;20296;-76
2022/04/01 04:46:11;;;;;;;4.47;1.10;;;1.10;59.20;;;;;;4085792;28;20105;-76
2022/04/01 04:48:11;;;;;;;5.28;1.20;;;1.10;59.30;;;;;;4091102;28;20042;-76
2022/04/01 04:50:12;;;;;;;4.18;0.90;;;1.10;59.50;;;;;;4056376;29;20508;-76
2022/04/01 04:52:13;;;;;;;1.50;0.73;;;1.10;59.40;;;;;;4071336;29;20127;-76
2022/04/01 04:54:15;;;;;;;3.35;1.35;;;1.10;59.50;;;;;;4062501;29;20504;-76
2022/04/01 04:56:17;;;;;;;1.30;0.80;;;1.10;59.50;;;;;;4063154;29;20036;-76
2022/04/01 04:58:18;;;;;;;5.78;1.10;;;1.10;59.60;;;;;;4059182;29;20397;-76
2022/04/01 05:00:20;;;;;;;1.45;0.80;;;1.10;59.60;;;;;;4059156;29;20122;-76
2022/04/01 05:02:32;;;;;;;7.63;1.10;;;1.10;59.70;;;;;;4096316;28;20104;-76
2022/04/01 05:04:59;;;;;;;3.83;0.90;;;1.10;59.80;;;;;;4087991;28;20027;-76
2022/04/01 05:07:30;;;;;;;1.95;0.80;;;1.10;59.90;;;;;;4072107;29;20028;-76
2022/04/01 05:10:02;;;;;;;4.88;1.42;;;1.10;59.90;;;;;;4069296;29;20561;-75
2022/04/01 05:12:05;;;;;;;2.85;0.88;;;1.10;59.90;;;;;;4033832;29;20503;-76
2022/04/01 05:14:12;;;;;;;3.65;1.30;;;1.10;59.90;;;;;;4072595;29;20059;-76
2022/04/01 05:16:39;;;;;;;1.70;1.02;;;1.10;60.70;;;;;;4091387;29;20043;-76
2022/04/01 05:18:50;;;;;;;4.97;0.80;;;1.10;60.00;;;;;;4075715;29;20031;-76
2022/04/01 05:20:55;;;;;;;4.78;1.00;;;1.10;60.00;;;;;;4059577;29;20028;-76
2022/04/01 05:23:11;;;;;;;1.88;0.75;;;1.10;60.10;;;;;;4061922;29;20034;-76
2022/04/01 05:25:13;;;;;;;3.05;0.80;;;1.10;60.30;;;;;;4070727;29;20510;-75
2022/04/01 05:27:18;;;;;;;1.67;0.82;;;1.10;60.40;;;;;;4059462;29;20048;-75
2022/04/01 05:29:25;;;;;;;4.55;1.10;;;1.10;60.40;;;;;;4073726;29;20516;-76
2022/04/01 05:31:25;;;;;;;4.15;1.30;;;1.10;60.40;;;;;;4073089;29;20484;-76
2022/04/01 05:33:27;;;;;;;1.52;0.80;;;1.10;60.50;;;;;;4094105;28;20043;-76
2022/04/01 05:35:36;;;;;;;2.72;1.00;;;1.10;60.50;;;;;;4061212;29;20599;-76
2022/04/01 05:37:37;;;;;;;3.03;1.10;;;1.10;60.70;;;;;;4055566;29;20483;-76
2022/04/01 05:39:39;;;;;;;3.08;0.95;;;1.10;60.70;;;;;;4055367;29;20077;-76
2022/04/01 05:41:40;;;;;;;2.93;1.23;;;1.10;60.70;;;;;;4077152;29;20516;-76
2022/04/01 05:43:40;;;;;;;3.28;1.05;;;1.10;60.80;;;;;;4059994;29;20367;-76
2022/04/01 05:45:43;;;;;;;2.53;1.20;;;1.10;60.80;;;;;;4073950;29;20039;-75
2022/04/01 05:47:44;;;;;;;3.08;1.20;;;1.20;60.90;;;;;;4078074;29;20055;-76
2022/04/01 05:49:45;;;;;;;1.50;0.82;;;1.20;60.90;;;;;;4060313;29;20047;-75
2022/04/01 05:51:46;;;;;;;4.43;1.58;;;1.20;60.80;;;;;;4076327;29;20115;-76
2022/04/01 05:53:47;;;;;;;3.10;1.08;;;1.20;60.90;;;;;;4089556;28;20130;-76
2022/04/01 05:55:48;;;;;;;1.63;0.88;;;1.20;60.80;;;;;;4071021;29;20028;-77
2022/04/01 05:57:49;;;;;;;2.92;1.00;;;1.20;60.80;;;;;;4073051;29;20144;-76
2022/04/01 05:59:50;;;;;;;3.17;1.17;;;1.20;60.80;;;;;;4086489;28;20051;-75
2022/04/01 06:02:18;;;;;;;1.92;1.00;;;1.30;60.80;;;;;;4049195;29;20048;-76
2022/04/01 06:04:39;;;;;;;3.53;1.15;;;1.30;60.70;;;;;;4081178;29;20027;-76
2022/04/01 06:06:44;;;;;;;2.75;0.95;;;1.30;60.50;;;;;;4080526;29;20585;-76
2022/04/01 06:08:57;;;;;;;3.13;1.13;;;1.30;60.50;;;;;;4080871;29;20548;-78
2022/04/01 06:11:06;;;;;;;0.73;0.57;;;1.30;60.50;;;;;;4087101;29;20079;-77
2022/04/01 06:13:36;;;;;;;2.63;1.00;;;1.40;60.50;;;;;;4094525;28;20485;-77
2022/04/01 06:16:15;;;;;;;4.60;1.73;;;1.40;60.20;;;;;;4082598;29;20484;-77
2022/04/01 06:18:32;;;;;;;2.30;0.95;;;1.40;60.00;;;;;;4095430;28;20090;-77
2022/04/01 06:20:34;;;;;;;1.33;0.88;;;1.40;59.80;;;;;;4094649;28;20035;-77
2022/04/01 06:22:44;;;;;;;1.35;0.80;;;1.40;59.70;;;;;;4078672;29;20032;-77
2022/04/01 06:24:46;;;;;;;3.58;1.20;;;1.40;59.40;;;;;;4063694;29;20099;-77
2022/04/01 06:26:48;;;;;;;5.68;1.00;;;1.50;59.40;;;;;;4094113;28;20031;-77
2022/04/01 06:29:13;;;;;;;5.10;1.42;;;1.50;59.30;;;;;;4066048;29;20194;-77
2022/04/01 06:31:14;;;;;;;1.83;0.82;;;1.50;59.00;;;;;;4092235;29;20039;-77
2022/04/01 06:33:49;;;;;;;1.98;0.70;;;1.50;59.00;;;;;;4061626;29;20374;-77
2022/04/01 06:35:55;;;;;;;2.00;1.00;;;1.50;58.80;;;;;;4091513;29;20024;-77
2022/04/01 06:38:05;;;;;;;3.17;0.95;;;1.50;58.40;;;;;;4092919;29;20426;-77
2022/04/01 06:40:10;;;;;;;2.90;0.82;;;1.60;58.40;;;;;;4069344;29;20043;-77
2022/04/01 06:42:15;;;;;;;8.48;0.82;;;1.60;58.20;;;;;;4083089;29;20480;-77
2022/04/01 06:44:16;;;;;;;3.22;1.00;;;1.60;58.10;;;;;;4075407;29;20080;-77
2022/04/01 06:46:16;;;;;;;5.25;1.20;;;1.70;58.10;;;;;;4081359;29;20032;-77
2022/04/01 06:48:17;;;;;;;3.35;0.80;;;1.70;57.90;;;;;;4080804;29;20032;-77
2022/04/01 06:50:18;;;;;;;1.60;0.90;;;1.70;57.50;;;;;;4091451;29;20032;-77
2022/04/01 06:52:19;;;;;;;2.17;0.75;;;1.80;57.30;;;;;;4072501;29;20454;-78
2022/04/01 06:54:20;;;;;;;2.28;0.80;;;1.80;56.90;;;;;;4082197;29;20438;-77
2022/04/01 06:56:20;;;;;;;3.90;1.10;;;1.80;56.40;;;;;;4092132;29;20024;-77
2022/04/01 06:58:25;;;;;;;3.22;0.75;;;1.90;55.40;;;;;;4062935;29;20439;-77
2022/04/01 07:00:26;;;;;;;1.70;0.90;;;1.90;55.30;;;;;;4076890;29;20027;-77
2022/04/01 07:02:27;;;;;;;1.75;0.68;;;1.90;54.70;;;;;;4072748;29;20070;-77
2022/04/01 07:04:28;;;;;;;2.80;0.75;;;1.80;54.60;;;;;;4071042;29;20067;-77
2022/04/01 07:06:28;;;;;;;2.35;0.70;;;1.90;54.50;;;;;;4094096;29;20023;-77
2022/04/01 07:08:29;;;;;;;2.63;0.82;;;2.00;54.30;;;;;;4077092;29;20045;-78
2022/04/01 07:10:30;;;;;;;3.10;0.90;;;2.00;54.00;;;;;;4074440;29;20091;-76
2022/04/01 07:12:32;;;;;;;1.75;0.73;;;2.00;54.10;;;;;;4075537;29;20512;-77
2022/04/01 07:14:32;;;;;;;1.60;0.80;;;2.00;54.00;;;;;;4066548;29;20052;-77
2022/04/01 07:16:33;;;;;;;3.88;0.75;;;2.10;54.20;;;;;;4089008;28;20035;-77
2022/04/01 07:18:34;;;;;;;3.85;0.75;;;2.10;54.10;;;;;;4093344;28;20145;-78
2022/04/01 07:20:34;;;;;;;8.57;0.75;;;2.10;53.30;;;;;;4075814;29;20067;-77
2022/04/01 07:22:36;;;;;;;1.00;0.57;;;2.10;53.30;;;;;;4086697;28;20374;-77
2022/04/01 07:24:36;;;;;;;2.83;0.57;;;2.20;52.80;;;;;;4093099;28;20407;-77
2022/04/01 07:26:37;;;;;;;2.00;0.80;;;2.20;52.80;;;;;;4090023;28;20027;-77
2022/04/01 07:28:38;;;;;;;1.30;0.60;;;2.20;52.90;;;;;;4072032;29;20040;-77
2022/04/01 07:30:38;;;;;;;4.95;0.70;;;2.20;52.70;;;;;;4091941;29;20019;-77
2022/04/01 07:32:40;;;;;;;1.30;0.63;;;2.30;52.50;;;;;;4095157;28;20055;-77
2022/04/01 07:34:42;;;;;;;2.33;0.70;;;2.30;52.30;;;;;;4080580;29;20079;-77
2022/04/01 07:36:42;;;;;;;2.47;0.75;;;2.30;52.60;;;;;;4083325;29;20055;-77
2022/04/01 07:38:44;;;;;;;1.45;0.75;;;2.30;52.90;;;;;;4064614;29;20048;-77
2022/04/01 07:40:45;;;;;;;2.50;0.60;;;2.30;53.00;;;;;;4061355;29;20084;-77
2022/04/01 07:42:45;;;;;;;4.07;0.90;;;2.40;53.00;;;;;;4076168;29;20023;-77
2022/04/01 07:44:47;;;;;;;2.72;0.88;;;2.40;52.90;;;;;;4077534;29;20047;-77
2022/04/01 07:46:48;;;;;;;1.48;0.70;;;2.40;52.80;;;;;;4094366;29;20066;-77
2022/04/01 07:48:49;;;;;;;3.78;0.90;;;2.40;52.80;;;;;;4095738;28;20098;-77
2022/04/01 07:50:50;;;;;;;1.83;0.60;;;2.40;52.90;;;;;;4081148;29;20032;-77
2022/04/01 07:52:50;;;;;;;1.23;0.55;;;2.40;53.20;;;;;;4062577;29;20036;-77
2022/04/01 07:54:51;;;;;;;7.72;1.02;;;2.50;53.10;;;;;;4095744;29;20042;-77
2022/04/01 07:56:52;;;;;;;3.80;0.80;;;2.50;53.10;;;;;;4065872;29;20310;-77
2022/04/01 07:58:52;;;;;;;3.25;0.73;;;2.60;53.00;;;;;;4095145;29;20034;-78
2022/04/01 08:00:53;;;;;;;1.73;0.80;;;2.60;52.80;;;;;;4096085;29;20054;-77
2022/04/01 08:02:54;;;;;;;2.55;1.00;;;2.60;53.10;;;;;;4074944;29;20024;-77
2022/04/01 08:04:54;;;;;;;3.85;0.90;;;2.60;52.70;;;;;;4076271;29;20032;-77
2022/04/01 08:06:56;;;;;;;3.35;1.02;;;2.70;52.90;;;;;;4094959;29;20042;-77
2022/04/01 08:08:58;;;;;;;10.55;1.10;;;2.70;53.00;;;;;;4076286;29;20309;-77
2022/04/01 08:10:59;;;;;;;3.17;0.85;;;2.70;52.80;;;;;;4080075;29;20050;-77
2022/04/01 08:12:59;;;;;;;2.63;0.70;;;2.80;52.80;;;;;;4091760;28;20043;-77
2022/04/01 08:15:01;;;;;;;4.53;0.60;;;2.80;52.90;;;;;;4094818;28;20049;-77
2022/04/01 08:17:02;;;;;;;3.72;1.10;;;2.80;53.10;;;;;;4088100;29;20489;-78
2022/04/01 08:19:03;;;;;;;4.05;0.70;;;2.80;53.20;;;;;;4070885;29;20553;-77
2022/04/01 08:21:04;;;;;;;2.00;0.90;;;2.90;53.20;;;;;;4078093;29;20027;-78
2022/04/01 08:23:05;;;;;;;1.88;0.98;;;2.90;53.20;;;;;;4079270;29;20106;-77
2022/04/01 08:25:07;;;;;;;2.15;0.90;;;2.90;52.70;;;;;;4094611;29;20055;-77
2022/04/01 08:27:08;;;;;;;1.35;0.73;;;3.00;52.90;;;;;;4092712;29;20489;-77
2022/04/01 08:29:08;;;;;;;1.60;0.80;;;3.00;53.20;;;;;;4071376;29;20032;-78
2022/04/01 08:31:09;;;;;;;2.53;0.90;;;3.00;53.30;;;;;;4057706;29;20064;-78
2022/04/01 08:33:10;;;;;;;4.97;1.13;;;3.10;53.50;;;;;;4076862;29;20023;-76
2022/04/01 08:35:10;;;;;;;3.03;1.00;;;3.10;53.40;;;;;;4057801;29;20038;-76
2022/04/01 08:37:11;;;;;;;2.05;0.95;;;3.10;53.00;;;;;;4090863;28;20042;-76
2022/04/01 08:39:12;;;;;;;5.97;1.05;;;3.20;53.20;;;;;;4089048;28;20031;-76
2022/04/01 08:41:17;;;;;;;2.85;0.88;;;3.20;53.30;;;;;;4094251;28;20519;-76
2022/04/01 08:43:39;;;;;;;4.82;1.10;;;3.30;52.40;;;;;;4071363;29;20043;-76
2022/04/01 08:45:41;;;;;;;3.38;0.70;;;3.30;52.30;;;;;;4072161;29;20515;-76
2022/04/01 08:47:41;;;;;;;4.60;0.70;;;3.30;52.10;;;;;;4073457;29;20094;-76
2022/04/01 08:49:42;;;;;;;3.15;0.73;;;3.40;52.30;;;;;;4092853;29;20157;-76
2022/04/01 08:51:42;;;;;;;3.13;0.70;;;3.40;52.00;;;;;;4063892;29;20039;-76
2022/04/01 08:53:44;;;;;;;1.67;0.70;;;3.40;51.70;;;;;;4058177;29;20323;-77
2022/04/01 08:55:48;;;;;;;4.40;1.00;;;3.40;51.00;;;;;;4047031;29;20055;-76
2022/04/01 08:57:50;;;;;;;8.07;1.27;;;3.50;50.80;;;;;;4073485;29;20081;-76
2022/04/01 08:59:51;;;;;;;2.63;0.90;;;3.50;50.80;;;;;;4090272;29;20122;-76
2022/04/01 09:01:52;;;;;;;2.35;1.10;;;3.50;50.90;;;;;;4092759;29;20038;-76
2022/04/01 09:03:56;;;;;;;3.60;1.02;;;3.50;52.00;;;;;;4089684;29;20442;-77
2022/04/01 09:05:58;;;;;;;1.38;0.80;;;3.50;51.50;;;;;;4087852;29;20125;-76
2022/04/01 09:08:03;;;;;;;3.95;1.05;;;3.50;51.40;;;;;;4071445;29;20075;-76
2022/04/01 09:10:05;;;;;;;2.08;0.90;;;3.60;51.10;;;;;;4092824;29;20714;-76
2022/04/01 09:12:08;;;;;;;2.42;0.98;;;3.60;50.80;;;;;;4077185;29;20067;-77
2022/04/01 09:14:09;;;;;;;3.70;0.98;;;3.60;50.40;;;;;;4090326;28;20122;-77
2022/04/01 09:16:21;;;;;;;2.63;1.20;;;3.60;50.30;;;;;;4054869;29;20060;-76
2022/04/01 09:18:47;;;;;;;3.70;1.10;;;3.70;49.60;;;;;;4076467;29;20036;-76
2022/04/01 09:20:50;;;;;;;5.65;1.20;;;3.70;49.20;;;;;;4062909;29;20039;-76
2022/04/01 09:22:56;;;;;;;4.25;1.00;;;3.70;49.50;;;;;;4080460;29;20023;-76
2022/04/01 09:25:10;;;;;;;2.95;1.10;;;3.70;49.20;;;;;;4063927;29;20115;-77
2022/04/01 09:27:11;;;;;;;6.72;1.10;;;3.70;49.10;;;;;;4075065;29;20053;-77
2022/04/01 09:29:11;;;;;;;2.30;0.90;;;3.70;48.80;;;;;;4090716;29;20059;-77
2022/04/01 09:31:14;;;;;;;2.13;0.93;;;3.80;48.10;;;;;;4062374;29;20027;-77
2022/04/01 09:33:15;;;;;;;1.90;0.70;;;3.80;48.40;;;;;;4064122;29;20553;-77
2022/04/01 09:35:16;;;;;;;14.98;0.90;;;3.80;48.00;;;;;;4081855;29;20023;-77
2022/04/01 09:37:17;;;;;;;4.40;1.00;;;3.80;48.20;;;;;;4079025;29;20051;-77
2022/04/01 09:39:18;;;;;;;1.20;0.75;;;3.90;48.10;;;;;;4085721;29;20564;-77
2022/04/01 09:41:19;;;;;;;2.83;0.90;;;3.90;48.00;;;;;;4077920;29;20146;-77
2022/04/01 09:43:24;;;;;;;1.58;0.88;;;3.90;47.40;;;;;;4079493;29;20031;-77
2022/04/01 09:45:29;;;;;;;2.03;0.90;;;3.90;46.90;;;;;;4081010;29;20223;-77
2022/04/01 09:47:39;;;;;;;2.45;0.90;;;3.90;46.70;;;;;;4095735;29;20043;-76
2022/04/01 09:49:44;;;;;;;3.00;1.30;;;3.90;46.50;;;;;;4091599;29;20039;-76
2022/04/01 09:51:45;;;;;;;3.17;1.20;;;3.90;46.80;;;;;;4075884;29;20059;-77
2022/04/01 09:53:54;;;;;;;3.53;1.23;;;3.90;46.70;;;;;;4079193;29;20043;-77
2022/04/01 09:55:56;;;;;;;2.08;1.00;;;4.00;46.90;;;;;;4088100;28;20078;-77
2022/04/01 09:57:56;;;;;;;3.42;1.23;;;4.00;46.40;;;;;;4080343;29;20509;-77
2022/04/01 09:59:57;;;;;;;2.72;0.93;;;4.00;46.00;;;;;;4081671;29;20114;-77
2022/04/01 10:01:59;;;;;;;2.30;1.05;;;4.00;46.10;;;;;;4077666;29;20524;-76
2022/04/01 10:04:00;;;;;;;2.67;1.10;;;4.00;46.00;;;;;;4088208;28;20118;-76
2022/04/01 10:06:00;;;;;;;8.30;1.05;;;4.10;45.50;;;;;;4050050;29;20071;-77
2022/04/01 10:08:06;;;;;;;2.50;0.80;;;4.10;44.80;;;;;;4063047;29;20522;-76
2022/04/01 10:10:07;;;;;;;1.02;0.80;;;4.10;44.50;;;;;;4077342;29;20043;-76
2022/04/01 10:12:09;;;;;;;1.60;0.93;;;4.10;44.00;;;;;;4066606;29;20044;-76
2022/04/01 10:14:17;;;;;;;1.67;0.60;;;4.20;43.80;;;;;;4087484;29;20039;-76
2022/04/01 10:16:18;;;;;;;1.67;0.82;;;4.10;44.20;;;;;;4075492;29;20074;-77
2022/04/01 10:18:19;;;;;;;2.65;0.90;;;4.20;44.90;;;;;;4062124;29;20087;-77
2022/04/01 10:20:21;;;;;;;2.25;0.82;;;4.20;45.40;;;;;;4093794;28;20497;-77
2022/04/01 10:22:21;;;;;;;2.88;1.25;;;4.20;45.90;;;;;;4079315;29;20032;-77
2022/04/01 10:24:38;;;;;;;1.98;0.88;;;4.30;45.80;;;;;;4058532;29;20036;-77
2022/04/01 10:26:42;;;;;;;2.25;0.77;;;4.30;45.80;;;;;;4076969;29;20454;-77
2022/04/01 10:28:46;;;;;;;1.65;0.90;;;4.40;46.40;;;;;;4087984;28;20036;-77
2022/04/01 10:30:57;;;;;;;1.77;0.73;;;4.40;45.00;;;;;;4061401;29;20040;-76
2022/04/01 10:32:58;;;;;;;3.15;0.80;;;4.50;44.90;;;;;;4088600;28;20134;-77
2022/04/01 10:34:59;;;;;;;2.58;0.93;;;4.50;44.10;;;;;;4070703;29;20489;-77
2022/04/01 10:37:00;;;;;;;3.70;0.70;;;4.60;44.10;;;;;;4075505;29;20044;-77
2022/04/01 10:39:07;;;;;;;1.33;0.70;;;4.60;44.30;;;;;;4087713;29;20371;-76
2022/04/01 10:41:09;;;;;;;2.50;0.68;;;4.60;44.40;;;;;;4091254;28;20031;-77
2022/04/01 10:43:11;;;;;;;1.48;0.68;;;4.70;43.80;;;;;;4074353;29;20055;-76
2022/04/01 10:45:15;;;;;;;1.97;0.73;;;4.70;43.40;;;;;;4088027;29;20488;-77
2022/04/01 10:47:15;;;;;;;1.83;0.80;;;4.80;44.00;;;;;;4094186;28;20034;-77
2022/04/01 10:51:38;;;;;;;3.00;0.80;;;4.90;44.30;;;;;;4074486;29;20642;-76
2022/04/01 10:53:46;;;;;;;2.00;0.63;;;4.90;43.90;;;;;;4069112;29;20616;-76
2022/04/01 10:55:46;;;;;;;3.13;0.93;;;5.00;42.80;;;;;;4057130;29;20036;-76
2022/04/01 10:57:47;;;;;;;2.63;0.70;;;5.00;41.30;;;;;;4090175;28;20101;-75
2022/04/01 10:59:48;;;;;;;6.95;1.42;;;5.00;42.20;;;;;;4059321;29;20430;-77